This is the latest recevied weather packets stored in our database for station/object K2ATL. If no packets are shown the sender has not sent any weather packets the latest 10 day(s).
| Time | Temp. | Humidity | Pressure | Rain* | Wind** | Luminosity | Snow |
|---|---|---|---|---|---|---|---|
| 1777670955 | 14.44° C | 66% | 1097.4 hPa | 0 mm | - | 198 W/m² | - |
| 1777670652 | 14.44° C | 67% | 1097.6 hPa | 0 mm | - | 213 W/m² | - |
| 1777670349 | 14.44° C | 65% | 1097.9 hPa | 0 mm | - | 226 W/m² | - |
| 1777670046 | 15° C | 64% | 1097.7 hPa | 0 mm | - | 226 W/m² | - |
| 1777669744 | 15.56° C | 63% | 1097.7 hPa | 0 mm | - | 263 W/m² | - |
| 1777669440 | 15.56° C | 63% | 1097.7 hPa | 0 mm | - | 255 W/m² | - |
| 1777669136 | 15° C | 66% | 1097.9 hPa | 0 mm | - | 283 W/m² | - |
| 1777668834 | 14.44° C | 66% | 1097.9 hPa | 0 mm | - | 269 W/m² | - |
| 1777668530 | 15° C | 66% | 1097.9 hPa | 0 mm | - | 276 W/m² | - |
| 1777668227 | 15° C | 67% | 1097.9 hPa | 0 mm | - | 274 W/m² | - |
| 1777667923 | 15° C | 63% | 1098.3 hPa | 0 mm | - | 264 W/m² | - |
| 1777667620 | 15° C | 64% | 1098.3 hPa | 0 mm | - | 227 W/m² | - |
| 1777667317 | 15.56° C | 60% | 1098.1 hPa | 0 mm | - | 182 W/m² | - |
| 1777667014 | 15.56° C | 63% | 1098.3 hPa | 0 mm | - | 185 W/m² | - |
| 1777666711 | 15.56° C | 64% | 1098.3 hPa | 0 mm | - | 245 W/m² | - |
| 1777666408 | 15.56° C | 62% | 1098.4 hPa | 0 mm | - | 257 W/m² | - |
| 1777666104 | 15.56° C | 59% | 1098.3 hPa | 0 mm | - | 279 W/m² | - |
| 1777665802 | 15° C | 61% | 1098.3 hPa | 0 mm | - | 444 W/m² | - |
| 1777665500 | 15.56° C | 61% | 1098.5 hPa | 0 mm | - | 355 W/m² | - |
| 1777665195 | 16.67° C | 59% | 1098.6 hPa | 0 mm | - | 354 W/m² | - |
| 1777664891 | 15.56° C | 59% | 1098.4 hPa | 0 mm | - | 459 W/m² | - |
| 1777664587 | 16.11° C | 56% | 1098.5 hPa | 0 mm | - | 831 W/m² | - |
| 1777664284 | 15° C | 59% | 1098.5 hPa | 0 mm | - | 725 W/m² | - |
| 1777663983 | 15.56° C | 58% | 1098.7 hPa | 0 mm | - | 748 W/m² | - |
| 1777663679 | 16.11° C | 55% | 1098.8 hPa | 0 mm | - | 702 W/m² | - |
* Rain latest hour (hover to see other rain measurements)
** Current wind speed in m/s (hover to see current wind gust speed)